createdAt,value
2024-02-10T00:02:19.447Z,13.20
2024-02-10T00:04:48.458Z,13.30
2024-02-10T00:07:16.142Z,13.30
2024-02-10T00:09:42.977Z,13.40
2024-02-10T00:12:11.206Z,13.30
2024-02-10T00:14:38.271Z,13.30
2024-02-10T00:17:10.679Z,13.30
2024-02-10T00:19:48.574Z,13.30
2024-02-10T00:22:18.524Z,13.40
2024-02-10T00:24:46.924Z,13.40
2024-02-10T00:27:18.315Z,13.40
2024-02-10T00:29:46.587Z,13.40
2024-02-10T00:32:14.507Z,13.50
2024-02-10T00:34:43.125Z,13.40
2024-02-10T00:37:10.959Z,13.40
2024-02-10T00:39:38.019Z,13.40
2024-02-10T00:42:05.495Z,13.30
2024-02-10T00:44:32.337Z,13.40
2024-02-10T00:46:59.388Z,13.40
2024-02-10T00:49:28.150Z,13.30
2024-02-10T00:51:56.545Z,13.30
2024-02-10T00:54:31.197Z,13.20
2024-02-10T00:56:58.086Z,13.20
2024-02-10T00:59:24.918Z,13.20
2024-02-10T01:01:53.754Z,13.20
2024-02-10T01:04:21.462Z,13.20
2024-02-10T01:06:51.441Z,13.10
2024-02-10T01:09:18.676Z,13.10
2024-02-10T01:11:47.602Z,13.00
2024-02-10T01:14:14.484Z,13.00
2024-02-10T01:16:45.154Z,13.00
2024-02-10T01:19:12.698Z,12.90
2024-02-10T01:21:40.239Z,12.90
2024-02-10T01:24:07.843Z,12.90
2024-02-10T01:26:36.608Z,12.90
2024-02-10T01:29:05.404Z,12.90
2024-02-10T01:31:33.955Z,12.90
2024-02-10T01:34:01.192Z,13.00
2024-02-10T01:36:30.362Z,13.00
2024-02-10T01:38:57.190Z,12.90
2024-02-10T01:41:24.015Z,12.90
2024-02-10T01:43:52.466Z,12.90
2024-02-10T01:46:23.541Z,12.90
2024-02-10T01:48:51.918Z,12.90
2024-02-10T01:51:19.838Z,12.90
2024-02-10T01:53:47.261Z,12.90
2024-02-10T01:56:18.001Z,12.90
2024-02-10T01:58:52.836Z,12.80
2024-02-10T02:01:22.985Z,12.90
2024-02-10T02:03:50.307Z,12.80
2024-02-10T02:06:19.730Z,12.80
2024-02-10T02:08:50.900Z,12.80
2024-02-10T02:11:20.504Z,12.80
2024-02-10T02:13:53.430Z,12.80
2024-02-10T02:16:21.714Z,12.80
2024-02-10T02:18:50.065Z,12.80
2024-02-10T02:21:16.952Z,12.70
2024-02-10T02:23:45.343Z,12.80
2024-02-10T02:26:12.145Z,12.80
2024-02-10T02:28:39.485Z,12.70
2024-02-10T02:31:06.691Z,12.60
2024-02-10T02:33:34.145Z,12.60
2024-02-10T02:36:01.350Z,12.60
2024-02-10T02:38:28.530Z,12.60
2024-02-10T02:40:55.511Z,12.50
2024-02-10T02:43:22.535Z,12.50
2024-02-10T02:45:49.703Z,12.50
2024-02-10T02:48:16.913Z,12.50
2024-02-10T02:50:48.727Z,12.50
2024-02-10T02:53:16.866Z,12.50
2024-02-10T02:55:47.683Z,12.50
2024-02-10T02:58:16.010Z,12.50
2024-02-10T03:00:43.217Z,12.60
2024-02-10T03:03:10.680Z,12.70
2024-02-10T03:05:38.036Z,12.70
2024-02-10T03:08:08.593Z,12.80
2024-02-10T03:10:36.929Z,12.80
2024-02-10T03:13:04.019Z,12.80
2024-02-10T03:15:32.156Z,12.90
2024-02-10T03:17:59.234Z,12.90
2024-02-10T03:20:30.557Z,12.80
2024-02-10T03:23:03.439Z,12.80
2024-02-10T03:25:31.716Z,12.80
2024-02-10T03:27:59.054Z,12.70
2024-02-10T03:30:26.259Z,12.80
2024-02-10T03:32:57.410Z,12.70
2024-02-10T03:35:26.166Z,12.70
2024-02-10T03:37:53.431Z,12.60
2024-02-10T03:40:20.744Z,12.60
2024-02-10T03:42:49.667Z,12.50
2024-02-10T03:45:16.777Z,12.50
2024-02-10T03:47:45.763Z,12.40
2024-02-10T03:50:15.308Z,12.40
2024-02-10T03:52:44.476Z,12.30
2024-02-10T03:55:11.875Z,12.20
2024-02-10T03:57:40.952Z,12.20
2024-02-10T04:00:12.467Z,12.10
2024-02-10T04:02:39.349Z,12.10
2024-02-10T04:05:07.612Z,12.00
2024-02-10T04:07:38.096Z,12.00
2024-02-10T04:10:10.545Z,11.90
2024-02-10T04:12:40.082Z,11.90
2024-02-10T04:15:10.951Z,12.00
2024-02-10T04:17:37.921Z,11.90
2024-02-10T04:20:05.411Z,11.90
2024-02-10T04:22:33.010Z,11.90
2024-02-10T04:25:01.814Z,11.90
2024-02-10T04:27:28.695Z,11.90
2024-02-10T04:29:56.011Z,11.90
2024-02-10T04:32:22.957Z,11.80
2024-02-10T04:34:50.787Z,11.80
2024-02-10T04:37:21.481Z,11.80
2024-02-10T04:39:48.418Z,11.80
2024-02-10T04:42:15.624Z,11.80
2024-02-10T04:44:50.642Z,11.90
2024-02-10T04:47:18.853Z,11.80
2024-02-10T04:49:45.938Z,11.90
2024-02-10T04:52:13.098Z,11.90
2024-02-10T04:54:39.942Z,11.90
2024-02-10T04:57:06.750Z,12.00
2024-02-10T04:59:35.086Z,12.00
2024-02-10T05:02:03.718Z,12.00
2024-02-10T05:04:30.638Z,12.00
2024-02-10T05:06:58.569Z,12.00
2024-02-10T05:09:25.815Z,12.00
2024-02-10T05:11:52.698Z,12.00
2024-02-10T05:14:19.860Z,12.00
2024-02-10T05:16:46.794Z,12.00
2024-02-10T05:19:16.057Z,12.00
2024-02-10T05:21:43.114Z,11.90
2024-02-10T05:24:14.221Z,11.90
2024-02-10T05:26:41.933Z,11.90
2024-02-10T05:29:12.650Z,11.90
2024-02-10T05:31:39.926Z,11.90
2024-02-10T05:34:17.268Z,11.80
2024-02-10T05:36:44.187Z,11.70
2024-02-10T05:39:13.473Z,11.70
2024-02-10T05:41:40.450Z,11.70
2024-02-10T05:44:08.034Z,11.70
2024-02-10T05:46:35.346Z,11.70
2024-02-10T05:49:04.679Z,11.80
2024-02-10T05:51:40.506Z,11.70
2024-02-10T05:54:07.640Z,11.70
2024-02-10T05:56:37.121Z,11.80
2024-02-10T05:59:06.893Z,11.70
2024-02-10T06:01:33.882Z,11.70
2024-02-10T06:04:00.828Z,11.70
2024-02-10T06:06:27.755Z,11.70
2024-02-10T06:08:54.649Z,11.70
2024-02-10T06:11:21.593Z,11.70
2024-02-10T06:13:50.878Z,11.70
2024-02-10T06:16:18.076Z,11.60
2024-02-10T06:18:45.031Z,11.50
2024-02-10T06:21:12.459Z,11.50
2024-02-10T06:23:41.326Z,11.40
2024-02-10T06:26:12.132Z,11.40
2024-02-10T06:28:39.342Z,11.50
2024-02-10T06:31:12.119Z,11.50
2024-02-10T06:33:39.014Z,11.50
2024-02-10T06:36:06.271Z,11.50
2024-02-10T06:38:35.785Z,11.60
2024-02-10T06:41:03.694Z,11.50
2024-02-10T06:43:33.144Z,11.50
2024-02-10T06:46:02.040Z,11.40
2024-02-10T06:48:29.185Z,11.40
2024-02-10T06:50:56.107Z,11.40
2024-02-10T06:53:24.615Z,11.40
2024-02-10T06:55:52.738Z,11.40
2024-02-10T06:58:23.343Z,11.40
2024-02-10T07:00:50.557Z,11.40
2024-02-10T07:03:22.044Z,11.40
2024-02-10T07:05:51.706Z,11.50
2024-02-10T07:08:18.876Z,11.50
2024-02-10T07:10:50.347Z,11.50
2024-02-10T07:13:17.446Z,11.50
2024-02-10T07:15:44.404Z,11.50
2024-02-10T07:18:12.515Z,11.40
2024-02-10T07:20:39.621Z,11.40
2024-02-10T07:23:07.095Z,11.30
2024-02-10T07:25:39.344Z,11.30
2024-02-10T07:28:07.138Z,11.30
2024-02-10T07:30:36.774Z,11.20
2024-02-10T07:33:11.940Z,11.20
2024-02-10T07:35:41.383Z,11.10
2024-02-10T07:38:10.781Z,11.10
2024-02-10T07:40:38.570Z,11.10
2024-02-10T07:43:07.728Z,11.10
2024-02-10T07:45:34.947Z,11.10
2024-02-10T07:48:05.474Z,11.10
2024-02-10T07:50:32.543Z,11.10
2024-02-10T07:53:01.630Z,11.10
2024-02-10T07:55:28.868Z,11.20
2024-02-10T07:57:57.812Z,11.20
2024-02-10T08:00:24.786Z,11.30
2024-02-10T08:02:52.116Z,11.40
2024-02-10T08:05:22.732Z,11.50
2024-02-10T08:07:50.294Z,11.50
2024-02-10T08:10:20.779Z,11.70
2024-02-10T08:12:51.815Z,11.80
2024-02-10T08:15:18.883Z,11.90
2024-02-10T08:17:45.909Z,12.00
2024-02-10T08:20:13.180Z,12.00
2024-02-10T08:22:40.458Z,12.10
2024-02-10T08:25:08.937Z,12.20
2024-02-10T08:27:35.980Z,12.30
2024-02-10T08:30:04.653Z,12.40
2024-02-10T08:32:33.473Z,12.50
2024-02-10T08:35:02.735Z,12.60
2024-02-10T08:37:31.615Z,12.70
2024-02-10T08:39:59.553Z,12.80
2024-02-10T08:42:29.095Z,12.90
2024-02-10T08:44:56.069Z,13.10
2024-02-10T08:47:23.276Z,13.20
2024-02-10T08:49:51.428Z,13.40
2024-02-10T08:52:24.040Z,13.50
2024-02-10T08:54:52.381Z,13.60
2024-02-10T08:57:21.172Z,13.80
2024-02-10T08:59:52.865Z,13.80
2024-02-10T09:02:22.123Z,13.80
2024-02-10T09:04:50.392Z,13.90
2024-02-10T09:07:20.721Z,14.00
2024-02-10T09:09:47.820Z,14.00
2024-02-10T09:12:14.787Z,14.00
2024-02-10T09:14:43.682Z,13.90
2024-02-10T09:19:51.876Z,14.10
2024-02-10T09:22:19.136Z,14.10
2024-02-10T09:24:46.106Z,14.20
2024-02-10T09:27:13.877Z,14.30
2024-02-10T09:29:40.897Z,14.40
2024-02-10T09:32:08.103Z,14.40
2024-02-10T09:37:02.217Z,14.50
2024-02-10T09:39:29.267Z,14.50
2024-02-10T09:42:05.565Z,14.60
2024-02-10T09:44:34.652Z,14.70
2024-02-10T09:47:03.020Z,14.70
2024-02-10T09:49:31.608Z,14.80
2024-02-10T09:52:00.524Z,14.80
2024-02-10T09:54:28.163Z,14.80
2024-02-10T09:56:58.415Z,14.80
2024-02-10T09:59:26.522Z,14.80
2024-02-10T10:02:01.272Z,14.80
2024-02-10T10:04:28.388Z,14.70
2024-02-10T10:06:57.880Z,14.80
2024-02-10T10:09:24.868Z,14.80
2024-02-10T10:11:52.729Z,14.90
2024-02-10T10:14:21.225Z,14.90
2024-02-10T10:17:00.312Z,14.90
2024-02-10T10:19:29.032Z,14.90
2024-02-10T10:21:58.544Z,15.00
2024-02-10T10:24:28.655Z,14.90
2024-02-10T10:26:57.758Z,15.00
2024-02-10T10:29:25.232Z,14.90
2024-02-10T10:31:55.245Z,14.90
2024-02-10T10:34:24.809Z,15.00
2024-02-10T10:36:54.544Z,15.00
2024-02-10T10:39:24.169Z,15.00
2024-02-10T10:41:54.039Z,15.00
2024-02-10T10:44:22.969Z,15.00
2024-02-10T10:46:51.592Z,15.00
2024-02-10T10:49:18.546Z,15.10
2024-02-10T10:51:53.636Z,15.10
2024-02-10T10:54:26.398Z,15.10
2024-02-10T10:56:53.421Z,15.00
2024-02-10T10:59:23.281Z,15.00
2024-02-10T11:01:52.857Z,14.90
2024-02-10T11:04:21.427Z,15.00
2024-02-10T11:06:48.988Z,14.90
2024-02-10T11:09:23.151Z,14.90
2024-02-10T11:11:52.616Z,15.00
2024-02-10T11:14:20.086Z,14.90
2024-02-10T11:16:54.969Z,14.80
2024-02-10T11:25:43.928Z,14.60
2024-02-10T11:28:24.758Z,14.60
2024-02-10T11:30:51.900Z,14.60
2024-02-10T11:33:24.721Z,14.60
2024-02-10T11:35:54.997Z,14.60
2024-02-10T11:38:26.067Z,14.60
2024-02-10T11:40:53.090Z,14.60
2024-02-10T11:43:22.174Z,14.50
2024-02-10T11:45:49.796Z,14.60
2024-02-10T11:48:16.727Z,14.40
2024-02-10T11:50:59.190Z,14.40
2024-02-10T11:53:33.236Z,14.40
2024-02-10T11:56:07.759Z,14.30
2024-02-10T11:58:36.936Z,14.20
2024-02-10T12:01:04.184Z,14.20
2024-02-10T12:12:01.705Z,14.00
2024-02-10T12:14:38.181Z,13.90
2024-02-10T12:17:07.768Z,13.90
2024-02-10T12:20:02.043Z,13.80
2024-02-10T12:25:24.639Z,13.70
2024-02-10T12:27:51.852Z,13.80
2024-02-10T12:30:20.322Z,13.60
2024-02-10T12:32:50.795Z,13.60
2024-02-10T12:35:17.901Z,13.60
2024-02-10T12:37:48.270Z,13.60
2024-02-10T12:40:16.458Z,13.50
2024-02-10T12:42:49.988Z,13.60
2024-02-10T12:45:18.505Z,13.60
2024-02-10T12:47:47.262Z,13.60
2024-02-10T12:50:15.091Z,13.60
2024-02-10T12:52:46.543Z,13.60
2024-02-10T12:55:15.224Z,13.60
2024-02-10T12:57:43.174Z,13.60
2024-02-10T13:00:21.559Z,13.60
2024-02-10T13:02:52.708Z,13.60
2024-02-10T13:05:21.847Z,13.70
2024-02-10T13:07:48.958Z,13.60
2024-02-10T13:10:26.488Z,13.70
2024-02-10T13:12:55.534Z,13.70
2024-02-10T13:15:26.400Z,13.80
2024-02-10T13:17:55.006Z,13.80
2024-02-10T13:20:24.574Z,13.90
2024-02-10T13:22:54.461Z,13.90
2024-02-10T13:25:24.927Z,14.00
2024-02-10T13:27:55.113Z,14.00
2024-02-10T13:30:23.813Z,14.00
2024-02-10T13:32:52.235Z,14.00
2024-02-10T13:35:22.028Z,14.00
2024-02-10T13:38:08.918Z,14.00
2024-02-10T13:40:57.390Z,14.00
2024-02-10T13:43:45.202Z,14.00
2024-02-10T13:46:30.920Z,13.90
2024-02-10T13:49:16.629Z,14.00
2024-02-10T13:52:02.002Z,14.00
2024-02-10T13:54:47.366Z,14.00
2024-02-10T13:57:36.875Z,14.00
2024-02-10T14:00:29.911Z,14.00
2024-02-10T14:03:06.477Z,14.10
2024-02-10T14:05:43.615Z,14.10
2024-02-10T14:08:12.561Z,14.20
2024-02-10T14:10:48.798Z,14.30
2024-02-10T14:13:22.574Z,14.40
2024-02-10T14:15:55.638Z,14.40
2024-02-10T14:18:31.501Z,14.40
2024-02-10T14:21:13.604Z,14.50
2024-02-10T14:23:44.365Z,14.50
2024-02-10T14:26:16.592Z,14.70
2024-02-10T14:28:56.876Z,14.80
2024-02-10T14:31:24.128Z,14.80
2024-02-10T14:33:55.008Z,14.80
2024-02-10T14:36:50.375Z,14.80
2024-02-10T14:39:19.320Z,14.80
2024-02-10T14:41:47.359Z,14.60
2024-02-10T14:44:14.383Z,14.60
2024-02-10T14:46:45.551Z,14.60
2024-02-10T14:49:16.366Z,14.70
2024-02-10T14:51:44.834Z,14.70
2024-02-10T14:54:12.100Z,14.70
2024-02-10T14:56:40.777Z,14.80
2024-02-10T14:59:12.714Z,14.80
2024-02-10T15:01:42.012Z,14.90
2024-02-10T15:04:09.213Z,14.90
2024-02-10T15:06:38.246Z,14.90
2024-02-10T15:09:09.795Z,14.90
2024-02-10T15:11:41.073Z,15.00
2024-02-10T15:14:09.357Z,15.00
2024-02-10T15:16:38.336Z,14.90
2024-02-10T15:19:05.582Z,14.90
2024-02-10T15:21:34.639Z,15.00
2024-02-10T15:24:11.927Z,15.00
2024-02-10T15:26:41.073Z,15.10
2024-02-10T15:29:09.486Z,15.10
2024-02-10T15:31:36.544Z,15.10
2024-02-10T15:34:05.389Z,15.10
2024-02-10T15:36:38.079Z,15.00
2024-02-10T15:39:07.425Z,14.90
2024-02-10T15:41:35.593Z,14.90
2024-02-10T15:44:08.984Z,14.80
2024-02-10T15:46:42.173Z,14.80
2024-02-10T15:49:10.851Z,14.90
2024-02-10T15:51:40.235Z,14.70
2024-02-10T15:54:09.923Z,14.80
2024-02-10T15:56:43.531Z,14.70
2024-02-10T15:59:14.510Z,14.80
2024-02-10T16:01:42.949Z,14.80
2024-02-10T16:04:12.660Z,14.80
2024-02-10T16:06:45.752Z,14.80
2024-02-10T16:09:13.442Z,14.70
2024-02-10T16:11:40.337Z,14.70
2024-02-10T16:14:07.422Z,14.70
2024-02-10T16:16:34.489Z,14.70
2024-02-10T16:19:01.642Z,14.70
2024-02-10T16:21:32.248Z,14.70
2024-02-10T16:24:01.347Z,14.70
2024-02-10T16:26:28.350Z,14.70
2024-02-10T16:28:57.282Z,14.70
2024-02-10T16:31:25.963Z,14.70
2024-02-10T16:33:54.228Z,14.70
2024-02-10T16:36:28.064Z,14.70
2024-02-10T16:38:54.989Z,14.70
2024-02-10T16:41:23.864Z,14.60
2024-02-10T16:43:51.377Z,14.70
2024-02-10T16:46:18.948Z,14.70
2024-02-10T16:48:50.846Z,14.70
2024-02-10T16:51:26.420Z,14.60
2024-02-10T16:53:56.772Z,14.60
2024-02-10T16:56:23.953Z,14.60
2024-02-10T16:58:50.929Z,14.70
2024-02-10T17:01:18.735Z,14.60
2024-02-10T17:03:45.720Z,14.70
2024-02-10T17:06:16.321Z,14.70
2024-02-10T17:08:46.202Z,14.60
2024-02-10T17:11:13.353Z,14.60
2024-02-10T17:13:40.792Z,14.60
2024-02-10T17:16:08.413Z,14.60
2024-02-10T17:18:35.650Z,14.60
2024-02-10T17:21:04.517Z,14.60
2024-02-10T17:23:34.714Z,14.50
2024-02-10T17:26:08.472Z,14.50
2024-02-10T17:28:35.807Z,14.50
2024-02-10T17:31:02.772Z,14.50
2024-02-10T17:33:29.762Z,14.50
2024-02-10T17:35:57.368Z,14.50
2024-02-10T17:38:27.714Z,14.50
2024-02-10T17:40:54.918Z,14.50
2024-02-10T17:43:31.188Z,14.40
2024-02-10T17:45:58.043Z,14.40
2024-02-10T17:48:25.581Z,14.40
2024-02-10T17:50:53.803Z,14.40
2024-02-10T17:53:24.313Z,14.40
2024-02-10T17:56:00.081Z,14.40
2024-02-10T17:58:32.958Z,14.40
2024-02-10T18:01:01.619Z,14.40
2024-02-10T18:03:32.620Z,14.30
2024-02-10T18:06:03.553Z,14.30
2024-02-10T18:08:36.397Z,14.30
2024-02-10T18:11:03.452Z,14.20
2024-02-10T18:13:30.373Z,14.20
2024-02-10T18:15:58.590Z,14.20
2024-02-10T18:18:26.197Z,14.10
2024-02-10T18:20:53.078Z,14.10
2024-02-10T18:23:20.012Z,14.10
2024-02-10T18:25:46.899Z,14.10
2024-02-10T18:28:14.950Z,14.10
2024-02-10T18:30:46.970Z,14.10
2024-02-10T18:33:16.231Z,14.00
2024-02-10T18:35:45.621Z,14.00
2024-02-10T18:38:13.371Z,14.00
2024-02-10T18:40:40.500Z,14.00
2024-02-10T18:43:09.111Z,13.90
2024-02-10T18:45:36.876Z,14.00
2024-02-10T18:48:05.172Z,14.00
2024-02-10T18:50:33.024Z,13.90
2024-02-10T18:53:01.522Z,13.90
2024-02-10T18:55:30.218Z,14.00
2024-02-10T18:58:02.246Z,13.90
2024-02-10T19:00:30.599Z,13.90
2024-02-10T19:02:58.353Z,13.90
2024-02-10T19:05:26.776Z,13.90
2024-02-10T19:07:54.920Z,13.90
2024-02-10T19:10:22.069Z,13.90
2024-02-10T19:12:53.184Z,13.90
2024-02-10T19:15:20.139Z,13.90
2024-02-10T19:17:47.386Z,13.90
2024-02-10T19:20:17.865Z,13.80
2024-02-10T19:22:46.737Z,13.90
2024-02-10T19:25:17.550Z,13.80
2024-02-10T19:27:46.679Z,13.80
2024-02-10T19:30:14.554Z,13.80
2024-02-10T19:32:44.699Z,13.80
2024-02-10T19:35:17.460Z,13.80
2024-02-10T19:37:47.526Z,13.80
2024-02-10T19:40:16.291Z,13.80
2024-02-10T19:42:46.748Z,13.80
2024-02-10T19:45:15.627Z,13.80
2024-02-10T19:47:43.959Z,13.80
2024-02-10T19:50:13.305Z,13.80
2024-02-10T19:52:42.453Z,13.80
2024-02-10T19:55:10.058Z,13.80
2024-02-10T19:57:41.809Z,13.70
2024-02-10T20:00:14.255Z,13.70
2024-02-10T20:02:43.991Z,13.60
2024-02-10T20:05:13.557Z,13.60
2024-02-10T20:07:42.987Z,13.60
2024-02-10T20:10:11.163Z,13.50
2024-02-10T20:12:39.963Z,13.50
2024-02-10T20:15:07.551Z,13.50
2024-02-10T20:17:34.522Z,13.50
2024-02-10T20:20:08.300Z,13.50
2024-02-10T20:22:35.797Z,13.50
2024-02-10T20:25:05.776Z,13.50
2024-02-10T20:27:33.401Z,13.50
2024-02-10T20:30:00.518Z,13.50
2024-02-10T20:32:28.285Z,13.50
2024-02-10T20:34:55.369Z,13.50
2024-02-10T20:37:22.332Z,13.50
2024-02-10T20:39:50.795Z,13.50
2024-02-10T20:42:18.859Z,13.50
2024-02-10T20:44:48.404Z,13.50
2024-02-10T20:47:17.339Z,13.50
2024-02-10T20:49:44.704Z,13.50
2024-02-10T20:52:15.477Z,13.50
2024-02-10T20:54:44.693Z,13.50
2024-02-10T20:57:12.910Z,13.40
2024-02-10T20:59:40.098Z,13.50
2024-02-10T21:02:08.389Z,13.50
2024-02-10T21:04:35.607Z,13.40
2024-02-10T21:07:05.514Z,13.50
2024-02-10T21:09:34.717Z,13.40
2024-02-10T21:12:05.817Z,13.40
2024-02-10T21:14:32.802Z,13.40
2024-02-10T21:16:59.800Z,13.40
2024-02-10T21:19:26.747Z,13.40
2024-02-10T21:21:53.658Z,13.40
2024-02-10T21:24:22.684Z,13.40
2024-02-10T21:26:50.698Z,13.30
2024-02-10T21:29:17.909Z,13.30
2024-02-10T21:31:45.032Z,13.30
2024-02-10T21:34:12.810Z,13.20
2024-02-10T21:36:39.897Z,13.20
2024-02-10T21:39:16.004Z,13.20
2024-02-10T21:41:49.722Z,13.20
2024-02-10T21:44:16.795Z,13.20
2024-02-10T21:46:43.842Z,13.20
2024-02-10T21:49:12.615Z,13.20
2024-02-10T21:51:51.380Z,13.20
2024-02-10T21:54:19.100Z,13.20
2024-02-10T21:56:46.602Z,13.20
2024-02-10T21:59:13.907Z,13.20
2024-02-10T22:01:42.704Z,13.20
2024-02-10T22:04:10.928Z,13.20
2024-02-10T22:06:39.157Z,13.20
2024-02-10T22:09:06.321Z,13.20
2024-02-10T22:11:33.626Z,13.20
2024-02-10T22:14:00.670Z,13.20
2024-02-10T22:16:27.772Z,13.20
2024-02-10T22:18:55.459Z,13.20
2024-02-10T22:21:23.541Z,13.20
2024-02-10T22:23:52.116Z,13.20
2024-02-10T22:26:22.793Z,13.20
2024-02-10T22:28:51.030Z,13.20
2024-02-10T22:31:18.211Z,13.20
2024-02-10T22:33:47.115Z,13.20
2024-02-10T22:36:17.163Z,13.20
2024-02-10T22:38:44.825Z,13.20
2024-02-10T22:41:12.684Z,13.20
2024-02-10T22:43:40.127Z,13.20
2024-02-10T22:46:10.121Z,13.20
2024-02-10T22:48:37.605Z,13.20
2024-02-10T22:51:04.730Z,13.10
2024-02-10T22:53:32.866Z,13.00
2024-02-10T22:56:00.121Z,13.00
2024-02-10T22:58:29.126Z,13.00
2024-02-10T23:00:56.825Z,12.90
2024-02-10T23:03:24.783Z,12.80
2024-02-10T23:05:52.383Z,12.90
2024-02-10T23:08:21.631Z,12.90
2024-02-10T23:10:48.945Z,12.90
2024-02-10T23:13:22.000Z,12.90
2024-02-10T23:15:52.789Z,12.90
2024-02-10T23:18:25.562Z,12.90
2024-02-10T23:20:53.369Z,12.90
2024-02-10T23:23:29.343Z,13.00
2024-02-10T23:25:58.046Z,12.90
2024-02-10T23:28:25.073Z,12.90
2024-02-10T23:31:00.879Z,12.90
2024-02-10T23:33:33.807Z,12.90
2024-02-10T23:36:06.144Z,13.00
2024-02-10T23:38:36.225Z,12.90
2024-02-10T23:41:05.535Z,12.90
2024-02-10T23:43:36.155Z,12.80
2024-02-10T23:46:03.202Z,12.80
2024-02-10T23:48:30.212Z,12.70
2024-02-10T23:50:57.855Z,12.70
2024-02-10T23:53:24.879Z,12.80
2024-02-10T23:55:52.696Z,12.80
2024-02-10T23:58:20.082Z,12.80
